sensor_id;sensor_type;location;lat;lon;timestamp;pressure;altitude;pressure_sealevel;temperature
79714;BMP280;69206;51.420;5.400;2023-06-26T00:00:52;101253.19;;;24.24
79714;BMP280;69206;51.420;5.400;2023-06-26T00:03:21;101232.94;;;24.10
79714;BMP280;69206;51.420;5.400;2023-06-26T00:05:53;101268.13;;;24.20
79714;BMP280;69206;51.420;5.400;2023-06-26T00:08:19;101240.13;;;24.16
79714;BMP280;69206;51.420;5.400;2023-06-26T00:10:45;101265.97;;;24.29
79714;BMP280;69206;51.420;5.400;2023-06-26T00:13:11;101260.50;;;24.35
79714;BMP280;69206;51.420;5.400;2023-06-26T00:15:39;101185.13;;;23.72
79714;BMP280;69206;51.420;5.400;2023-06-26T00:18:17;101248.91;;;24.05
79714;BMP280;69206;51.420;5.400;2023-06-26T00:20:46;101235.84;;;24.09
79714;BMP280;69206;51.420;5.400;2023-06-26T00:23:25;101236.25;;;24.12
79714;BMP280;69206;51.420;5.400;2023-06-26T00:25:50;101213.44;;;23.86
79714;BMP280;69206;51.420;5.400;2023-06-26T00:28:19;101236.16;;;24.01
79714;BMP280;69206;51.420;5.400;2023-06-26T00:30:45;101224.53;;;23.89
79714;BMP280;69206;51.420;5.400;2023-06-26T00:33:10;101227.28;;;23.83
79714;BMP280;69206;51.420;5.400;2023-06-26T00:35:54;101224.28;;;23.90
79714;BMP280;69206;51.420;5.400;2023-06-26T00:38:24;101240.38;;;23.90
79714;BMP280;69206;51.420;5.400;2023-06-26T00:40:51;101245.72;;;23.90
79714;BMP280;69206;51.420;5.400;2023-06-26T00:43:17;101249.47;;;23.89
79714;BMP280;69206;51.420;5.400;2023-06-26T00:45:42;101253.88;;;23.84
79714;BMP280;69206;51.420;5.400;2023-06-26T00:48:17;101251.41;;;23.83
79714;BMP280;69206;51.420;5.400;2023-06-26T00:50:45;101261.63;;;24.10
79714;BMP280;69206;51.420;5.400;2023-06-26T00:53:12;101264.47;;;24.15
79714;BMP280;69206;51.420;5.400;2023-06-26T00:55:38;101210.84;;;23.73
79714;BMP280;69206;51.420;5.400;2023-06-26T00:58:06;101266.16;;;23.91
79714;BMP280;69206;51.420;5.400;2023-06-26T01:00:40;101232.75;;;23.70
79714;BMP280;69206;51.420;5.400;2023-06-26T01:03:08;101214.19;;;23.50
79714;BMP280;69206;51.420;5.400;2023-06-26T01:05:38;101237.22;;;23.58
79714;BMP280;69206;51.420;5.400;2023-06-26T01:08:05;101255.16;;;23.57
79714;BMP280;69206;51.420;5.400;2023-06-26T01:10:30;101190.09;;;23.19
79714;BMP280;69206;51.420;5.400;2023-06-26T01:12:58;101274.81;;;23.69
79714;BMP280;69206;51.420;5.400;2023-06-26T01:15:24;101240.63;;;23.16
79714;BMP280;69206;51.420;5.400;2023-06-26T01:17:52;101247.78;;;23.22
79714;BMP280;69206;51.420;5.400;2023-06-26T01:20:20;101279.84;;;23.35
79714;BMP280;69206;51.420;5.400;2023-06-26T01:23:29;101284.16;;;23.36
79714;BMP280;69206;51.420;5.400;2023-06-26T01:26:22;101277.09;;;23.17
79714;BMP280;69206;51.420;5.400;2023-06-26T01:28:50;101256.38;;;22.99
79714;BMP280;69206;51.420;5.400;2023-06-26T01:31:17;101274.84;;;23.14
79714;BMP280;69206;51.420;5.400;2023-06-26T01:33:45;101280.44;;;23.06
79714;BMP280;69206;51.420;5.400;2023-06-26T01:36:22;101268.59;;;22.89
79714;BMP280;69206;51.420;5.400;2023-06-26T01:38:49;101241.19;;;22.87
79714;BMP280;69206;51.420;5.400;2023-06-26T01:41:18;101264.97;;;23.08
79714;BMP280;69206;51.420;5.400;2023-06-26T01:46:48;101292.06;;;22.87
79714;BMP280;69206;51.420;5.400;2023-06-26T01:52:30;101283.50;;;22.65
79714;BMP280;69206;51.420;5.400;2023-06-26T01:55:55;101304.13;;;22.65
79714;BMP280;69206;51.420;5.400;2023-06-26T01:58:02;101285.44;;;22.52
79714;BMP280;69206;51.420;5.400;2023-06-26T02:00:29;101284.25;;;22.42
79714;BMP280;69206;51.420;5.400;2023-06-26T02:02:57;101315.69;;;22.46
79714;BMP280;69206;51.420;5.400;2023-06-26T02:05:23;101315.91;;;22.51
79714;BMP280;69206;51.420;5.400;2023-06-26T02:07:50;101308.13;;;22.30
79714;BMP280;69206;51.420;5.400;2023-06-26T02:10:16;101317.78;;;22.31
79714;BMP280;69206;51.420;5.400;2023-06-26T02:12:42;101248.50;;;21.97
79714;BMP280;69206;51.420;5.400;2023-06-26T02:15:08;101261.88;;;22.10
79714;BMP280;69206;51.420;5.400;2023-06-26T02:17:35;101268.06;;;22.11
79714;BMP280;69206;51.420;5.400;2023-06-26T02:20:00;101276.06;;;22.17
79714;BMP280;69206;51.420;5.400;2023-06-26T02:22:27;101261.25;;;22.02
79714;BMP280;69206;51.420;5.400;2023-06-26T02:24:55;101243.41;;;21.76
79714;BMP280;69206;51.420;5.400;2023-06-26T02:27:22;101294.19;;;22.02
79714;BMP280;69206;51.420;5.400;2023-06-26T02:29:55;101245.06;;;21.58
79714;BMP280;69206;51.420;5.400;2023-06-26T02:32:25;101269.91;;;21.65
79714;BMP280;69206;51.420;5.400;2023-06-26T02:34:51;101317.59;;;22.00
79714;BMP280;69206;51.420;5.400;2023-06-26T02:37:22;101266.84;;;21.68
79714;BMP280;69206;51.420;5.400;2023-06-26T02:39:47;101293.56;;;21.74
79714;BMP280;69206;51.420;5.400;2023-06-26T02:42:16;101314.75;;;21.95
79714;BMP280;69206;51.420;5.400;2023-06-26T02:44:42;101206.16;;;21.03
79714;BMP280;69206;51.420;5.400;2023-06-26T02:47:07;101312.88;;;21.70
79714;BMP280;69206;51.420;5.400;2023-06-26T02:49:33;101321.09;;;21.62
79714;BMP280;69206;51.420;5.400;2023-06-26T02:51:58;101256.66;;;21.11
79714;BMP280;69206;51.420;5.400;2023-06-26T02:54:24;101303.13;;;21.23
79714;BMP280;69206;51.420;5.400;2023-06-26T02:56:50;101308.09;;;21.33
79714;BMP280;69206;51.420;5.400;2023-06-26T02:59:15;101352.28;;;21.55
79714;BMP280;69206;51.420;5.400;2023-06-26T03:01:40;101283.75;;;21.08
79714;BMP280;69206;51.420;5.400;2023-06-26T03:04:06;101325.34;;;21.30
79714;BMP280;69206;51.420;5.400;2023-06-26T03:06:31;101351.03;;;21.38
79714;BMP280;69206;51.420;5.400;2023-06-26T03:08:56;101295.88;;;21.04
79714;BMP280;69206;51.420;5.400;2023-06-26T03:11:22;101329.75;;;21.04
79714;BMP280;69206;51.420;5.400;2023-06-26T03:13:48;101338.44;;;21.19
79714;BMP280;69206;51.420;5.400;2023-06-26T03:16:15;101326.72;;;21.13
79714;BMP280;69206;51.420;5.400;2023-06-26T03:18:40;101314.56;;;20.98
79714;BMP280;69206;51.420;5.400;2023-06-26T03:21:06;101338.75;;;20.97
79714;BMP280;69206;51.420;5.400;2023-06-26T03:23:35;101366.72;;;21.07
79714;BMP280;69206;51.420;5.400;2023-06-26T03:26:00;101309.97;;;20.86
79714;BMP280;69206;51.420;5.400;2023-06-26T03:28:26;101315.31;;;20.86
79714;BMP280;69206;51.420;5.400;2023-06-26T03:30:52;101323.47;;;20.78
79714;BMP280;69206;51.420;5.400;2023-06-26T03:33:17;101327.16;;;20.77
79714;BMP280;69206;51.420;5.400;2023-06-26T03:35:43;101337.41;;;20.73
79714;BMP280;69206;51.420;5.400;2023-06-26T03:38:09;101290.94;;;20.55
79714;BMP280;69206;51.420;5.400;2023-06-26T03:40:35;101327.91;;;20.58
79714;BMP280;69206;51.420;5.400;2023-06-26T03:43:00;101344.34;;;20.68
79714;BMP280;69206;51.420;5.400;2023-06-26T03:45:25;101349.69;;;20.68
79714;BMP280;69206;51.420;5.400;2023-06-26T03:47:51;101335.28;;;20.62
79714;BMP280;69206;51.420;5.400;2023-06-26T03:50:17;101312.22;;;20.48
79714;BMP280;69206;51.420;5.400;2023-06-26T03:52:43;101375.44;;;20.82
79714;BMP280;69206;51.420;5.400;2023-06-26T03:55:09;101360.75;;;20.65
79714;BMP280;69206;51.420;5.400;2023-06-26T03:57:34;101382.59;;;20.81
79714;BMP280;69206;51.420;5.400;2023-06-26T03:59:59;101366.84;;;20.52
79714;BMP280;69206;51.420;5.400;2023-06-26T04:02:25;101341.59;;;20.27
79714;BMP280;69206;51.420;5.400;2023-06-26T04:04:51;101356.75;;;20.48
79714;BMP280;69206;51.420;5.400;2023-06-26T04:07:18;101357.16;;;20.51
79714;BMP280;69206;51.420;5.400;2023-06-26T04:09:43;101372.91;;;20.74
79714;BMP280;69206;51.420;5.400;2023-06-26T04:12:09;101416.31;;;20.89
79714;BMP280;69206;51.420;5.400;2023-06-26T04:14:34;101365.16;;;20.51
79714;BMP280;69206;51.420;5.400;2023-06-26T04:17:00;101341.97;;;20.45
79714;BMP280;69206;51.420;5.400;2023-06-26T04:19:29;101404.34;;;20.78
79714;BMP280;69206;51.420;5.400;2023-06-26T04:21:54;101432.16;;;20.90
79714;BMP280;69206;51.420;5.400;2023-06-26T04:24:21;101417.97;;;20.90
79714;BMP280;69206;51.420;5.400;2023-06-26T04:26:47;101418.25;;;20.74
79714;BMP280;69206;51.420;5.400;2023-06-26T04:29:14;101360.19;;;20.42
79714;BMP280;69206;51.420;5.400;2023-06-26T04:31:39;101420.06;;;20.94
79714;BMP280;69206;51.420;5.400;2023-06-26T04:34:06;101424.16;;;20.97
79714;BMP280;69206;51.420;5.400;2023-06-26T04:36:31;101371.94;;;20.81
79714;BMP280;69206;51.420;5.400;2023-06-26T04:38:58;101425.50;;;21.13
79714;BMP280;69206;51.420;5.400;2023-06-26T04:41:24;101415.66;;;21.14
79714;BMP280;69206;51.420;5.400;2023-06-26T04:43:50;101424.66;;;21.06
79714;BMP280;69206;51.420;5.400;2023-06-26T04:46:15;101446.13;;;21.32
79714;BMP280;69206;51.420;5.400;2023-06-26T04:48:41;101402.84;;;21.03
79714;BMP280;69206;51.420;5.400;2023-06-26T04:51:06;101455.91;;;21.19
79714;BMP280;69206;51.420;5.400;2023-06-26T04:53:31;101345.06;;;20.49
79714;BMP280;69206;51.420;5.400;2023-06-26T04:55:57;101383.63;;;20.80
79714;BMP280;69206;51.420;5.400;2023-06-26T04:58:22;101455.91;;;21.12
79714;BMP280;69206;51.420;5.400;2023-06-26T05:00:48;101459.94;;;21.02
79714;BMP280;69206;51.420;5.400;2023-06-26T05:03:16;101417.19;;;20.96
79714;BMP280;69206;51.420;5.400;2023-06-26T05:05:42;101460.88;;;21.22
79714;BMP280;69206;51.420;5.400;2023-06-26T05:08:18;101457.63;;;21.26
79714;BMP280;69206;51.420;5.400;2023-06-26T05:10:44;101460.88;;;21.22
79714;BMP280;69206;51.420;5.400;2023-06-26T05:13:10;101454.94;;;20.93
79714;BMP280;69206;51.420;5.400;2023-06-26T05:15:35;101433.13;;;20.83
79714;BMP280;69206;51.420;5.400;2023-06-26T05:18:01;101472.59;;;20.94
79714;BMP280;69206;51.420;5.400;2023-06-26T05:20:26;101457.44;;;21.00
79714;BMP280;69206;51.420;5.400;2023-06-26T05:22:51;101448.41;;;20.95
79714;BMP280;69206;51.420;5.400;2023-06-26T05:25:18;101473.72;;;21.05
79714;BMP280;69206;51.420;5.400;2023-06-26T05:27:48;101447.56;;;20.95
79714;BMP280;69206;51.420;5.400;2023-06-26T05:30:15;101480.59;;;21.27
79714;BMP280;69206;51.420;5.400;2023-06-26T05:32:40;101486.75;;;21.21
79714;BMP280;69206;51.420;5.400;2023-06-26T05:35:07;101475.09;;;21.01
79714;BMP280;69206;51.420;5.400;2023-06-26T05:37:33;101486.13;;;21.19
79714;BMP280;69206;51.420;5.400;2023-06-26T05:40:00;101458.31;;;21.07
79714;BMP280;69206;51.420;5.400;2023-06-26T05:42:27;101491.38;;;21.40
79714;BMP280;69206;51.420;5.400;2023-06-26T05:44:53;101497.72;;;21.39
79714;BMP280;69206;51.420;5.400;2023-06-26T05:47:20;101490.94;;;21.37
79714;BMP280;69206;51.420;5.400;2023-06-26T05:49:45;101473.06;;;21.03
79714;BMP280;69206;51.420;5.400;2023-06-26T05:52:11;101478.63;;;21.02
79714;BMP280;69206;51.420;5.400;2023-06-26T05:54:37;101462.03;;;21.06
79714;BMP280;69206;51.420;5.400;2023-06-26T05:57:03;101485.09;;;21.20
79714;BMP280;69206;51.420;5.400;2023-06-26T05:59:36;101509.81;;;21.35
79714;BMP280;69206;51.420;5.400;2023-06-26T06:02:04;101511.50;;;21.36
79714;BMP280;69206;51.420;5.400;2023-06-26T06:04:31;101476.81;;;21.09
79714;BMP280;69206;51.420;5.400;2023-06-26T06:06:57;101475.94;;;21.02
79714;BMP280;69206;51.420;5.400;2023-06-26T06:09:22;101515.00;;;21.43
79714;BMP280;69206;51.420;5.400;2023-06-26T06:11:48;101523.44;;;21.47
79714;BMP280;69206;51.420;5.400;2023-06-26T06:14:13;101511.69;;;21.35
79714;BMP280;69206;51.420;5.400;2023-06-26T06:16:39;101522.03;;;21.17
79714;BMP280;69206;51.420;5.400;2023-06-26T06:19:04;101536.97;;;21.11
79714;BMP280;69206;51.420;5.400;2023-06-26T06:21:32;101505.41;;;21.15
79714;BMP280;69206;51.420;5.400;2023-06-26T06:23:59;101546.84;;;21.38
79714;BMP280;69206;51.420;5.400;2023-06-26T06:26:26;101554.16;;;21.57
79714;BMP280;69206;51.420;5.400;2023-06-26T06:28:51;101554.28;;;21.49
79714;BMP280;69206;51.420;5.400;2023-06-26T06:31:17;101548.66;;;21.38
79714;BMP280;69206;51.420;5.400;2023-06-26T06:33:44;101544.84;;;21.53
79714;BMP280;69206;51.420;5.400;2023-06-26T06:36:10;101541.97;;;21.48
79714;BMP280;69206;51.420;5.400;2023-06-26T06:38:37;101550.94;;;21.34
79714;BMP280;69206;51.420;5.400;2023-06-26T06:41:03;101522.88;;;21.24
79714;BMP280;69206;51.420;5.400;2023-06-26T06:43:30;101535.66;;;21.28
79714;BMP280;69206;51.420;5.400;2023-06-26T06:45:56;101560.94;;;21.60
79714;BMP280;69206;51.420;5.400;2023-06-26T06:48:21;101540.72;;;21.51
79714;BMP280;69206;51.420;5.400;2023-06-26T06:50:46;101575.03;;;21.88
79714;BMP280;69206;51.420;5.400;2023-06-26T06:53:12;101565.78;;;21.84
79714;BMP280;69206;51.420;5.400;2023-06-26T06:55:40;101567.44;;;21.91
79714;BMP280;69206;51.420;5.400;2023-06-26T06:58:11;101578.78;;;22.00
79714;BMP280;69206;51.420;5.400;2023-06-26T07:00:36;101549.53;;;21.85
79714;BMP280;69206;51.420;5.400;2023-06-26T07:03:02;101543.34;;;21.78
79714;BMP280;69206;51.420;5.400;2023-06-26T07:05:27;101567.69;;;21.96
79714;BMP280;69206;51.420;5.400;2023-06-26T07:07:53;101564.34;;;21.88
79714;BMP280;69206;51.420;5.400;2023-06-26T07:10:18;101599.00;;;22.15
79714;BMP280;69206;51.420;5.400;2023-06-26T07:12:43;101603.88;;;22.05
79714;BMP280;69206;51.420;5.400;2023-06-26T07:15:10;101588.97;;;22.37
79714;BMP280;69206;51.420;5.400;2023-06-26T07:17:35;101589.34;;;22.27
79714;BMP280;69206;51.420;5.400;2023-06-26T07:20:03;101592.84;;;22.28
79714;BMP280;69206;51.420;5.400;2023-06-26T07:22:34;101614.34;;;22.60
79714;BMP280;69206;51.420;5.400;2023-06-26T07:24:59;101617.22;;;22.52
79714;BMP280;69206;51.420;5.400;2023-06-26T07:27:25;101628.94;;;22.51
79714;BMP280;69206;51.420;5.400;2023-06-26T07:29:51;101619.06;;;22.45
79714;BMP280;69206;51.420;5.400;2023-06-26T07:32:16;101619.25;;;22.50
79714;BMP280;69206;51.420;5.400;2023-06-26T07:34:42;101588.97;;;22.30
79714;BMP280;69206;51.420;5.400;2023-06-26T07:37:07;101620.91;;;22.51
79714;BMP280;69206;51.420;5.400;2023-06-26T07:39:33;101646.09;;;22.89
79714;BMP280;69206;51.420;5.400;2023-06-26T07:41:58;101610.06;;;22.85
79714;BMP280;69206;51.420;5.400;2023-06-26T07:44:25;101646.28;;;22.81
79714;BMP280;69206;51.420;5.400;2023-06-26T07:46:52;101586.94;;;22.64
79714;BMP280;69206;51.420;5.400;2023-06-26T07:49:19;101610.47;;;22.82
79714;BMP280;69206;51.420;5.400;2023-06-26T07:51:45;101597.91;;;22.89
79714;BMP280;69206;51.420;5.400;2023-06-26T07:54:11;101645.88;;;22.71
79714;BMP280;69206;51.420;5.400;2023-06-26T07:56:56;101661.34;;;22.82
79714;BMP280;69206;51.420;5.400;2023-06-26T07:59:23;101666.44;;;22.77
79714;BMP280;69206;51.420;5.400;2023-06-26T08:01:51;101622.16;;;22.61
79714;BMP280;69206;51.420;5.400;2023-06-26T08:04:25;101630.34;;;22.34
79714;BMP280;69206;51.420;5.400;2023-06-26T08:06:53;101617.59;;;22.43
79714;BMP280;69206;51.420;5.400;2023-06-26T08:09:20;101658.59;;;22.75
79714;BMP280;69206;51.420;5.400;2023-06-26T08:11:46;101646.00;;;22.50
79714;BMP280;69206;51.420;5.400;2023-06-26T08:14:13;101634.94;;;22.66
79714;BMP280;69206;51.420;5.400;2023-06-26T08:16:40;101653.25;;;22.56
79714;BMP280;69206;51.420;5.400;2023-06-26T08:19:08;101586.31;;;22.30
79714;BMP280;69206;51.420;5.400;2023-06-26T08:21:33;101610.53;;;22.22
79714;BMP280;69206;51.420;5.400;2023-06-26T08:23:59;101626.28;;;22.04
79714;BMP280;69206;51.420;5.400;2023-06-26T08:26:25;101665.50;;;22.31
79714;BMP280;69206;51.420;5.400;2023-06-26T08:28:50;101602.69;;;22.14
79714;BMP280;69206;51.420;5.400;2023-06-26T08:31:17;101624.41;;;22.45
79714;BMP280;69206;51.420;5.400;2023-06-26T08:33:46;101642.34;;;22.64
79714;BMP280;69206;51.420;5.400;2023-06-26T08:36:14;101689.13;;;22.87
79714;BMP280;69206;51.420;5.400;2023-06-26T08:38:43;101685.81;;;23.05
79714;BMP280;69206;51.420;5.400;2023-06-26T08:41:09;101613.16;;;22.82
79714;BMP280;69206;51.420;5.400;2023-06-26T08:43:35;101648.97;;;22.94
79714;BMP280;69206;51.420;5.400;2023-06-26T08:46:02;101650.00;;;22.86
79714;BMP280;69206;51.420;5.400;2023-06-26T08:48:32;101683.97;;;23.44
79714;BMP280;69206;51.420;5.400;2023-06-26T08:51:05;101649.97;;;23.45
79714;BMP280;69206;51.420;5.400;2023-06-26T08:53:49;101659.34;;;23.80
79714;BMP280;69206;51.420;5.400;2023-06-26T08:56:17;101662.69;;;23.82
79714;BMP280;69206;51.420;5.400;2023-06-26T08:58:44;101655.56;;;23.24
79714;BMP280;69206;51.420;5.400;2023-06-26T09:01:09;101648.16;;;23.06
79714;BMP280;69206;51.420;5.400;2023-06-26T09:03:35;101674.09;;;23.19
79714;BMP280;69206;51.420;5.400;2023-06-26T09:06:00;101699.84;;;23.46
79714;BMP280;69206;51.420;5.400;2023-06-26T09:08:26;101645.81;;;23.55
79714;BMP280;69206;51.420;5.400;2023-06-26T09:10:51;101659.59;;;23.65
79714;BMP280;69206;51.420;5.400;2023-06-26T09:13:18;101707.00;;;23.84
79714;BMP280;69206;51.420;5.400;2023-06-26T09:15:44;101696.09;;;23.73
79714;BMP280;69206;51.420;5.400;2023-06-26T09:18:11;101672.25;;;23.32
79714;BMP280;69206;51.420;5.400;2023-06-26T09:20:36;101688.31;;;23.26
79714;BMP280;69206;51.420;5.400;2023-06-26T09:23:02;101721.09;;;23.02
79714;BMP280;69206;51.420;5.400;2023-06-26T09:25:28;101720.19;;;22.75
79714;BMP280;69206;51.420;5.400;2023-06-26T09:27:55;101703.34;;;22.81
79714;BMP280;69206;51.420;5.400;2023-06-26T09:30:22;101711.63;;;23.06
79714;BMP280;69206;51.420;5.400;2023-06-26T09:32:48;101712.63;;;23.57
79714;BMP280;69206;51.420;5.400;2023-06-26T09:35:15;101717.72;;;23.78
79714;BMP280;69206;51.420;5.400;2023-06-26T09:37:41;101699.81;;;23.78
79714;BMP280;69206;51.420;5.400;2023-06-26T09:40:07;101713.50;;;24.20
79714;BMP280;69206;51.420;5.400;2023-06-26T09:42:33;101715.81;;;23.97
79714;BMP280;69206;51.420;5.400;2023-06-26T09:44:59;101695.81;;;23.93
79714;BMP280;69206;51.420;5.400;2023-06-26T09:47:24;101710.94;;;23.82
79714;BMP280;69206;51.420;5.400;2023-06-26T09:49:50;101700.88;;;24.21
79714;BMP280;69206;51.420;5.400;2023-06-26T09:52:18;101716.84;;;24.09
79714;BMP280;69206;51.420;5.400;2023-06-26T09:54:46;101700.22;;;23.82
79714;BMP280;69206;51.420;5.400;2023-06-26T09:57:13;101741.19;;;24.08
79714;BMP280;69206;51.420;5.400;2023-06-26T09:59:41;101708.78;;;24.09
79714;BMP280;69206;51.420;5.400;2023-06-26T10:02:07;101701.41;;;23.98
79714;BMP280;69206;51.420;5.400;2023-06-26T10:04:34;101691.31;;;23.87
79714;BMP280;69206;51.420;5.400;2023-06-26T10:07:01;101734.91;;;24.33
79714;BMP280;69206;51.420;5.400;2023-06-26T10:09:29;101669.41;;;24.41
79714;BMP280;69206;51.420;5.400;2023-06-26T10:11:57;101700.63;;;24.66
79714;BMP280;69206;51.420;5.400;2023-06-26T10:14:27;101733.63;;;25.04
79714;BMP280;69206;51.420;5.400;2023-06-26T10:16:57;101741.69;;;24.73
79714;BMP280;69206;51.420;5.400;2023-06-26T10:19:27;101720.28;;;24.60
79714;BMP280;69206;51.420;5.400;2023-06-26T10:21:54;101719.06;;;24.56
79714;BMP280;69206;51.420;5.400;2023-06-26T10:24:22;101725.16;;;24.76
79714;BMP280;69206;51.420;5.400;2023-06-26T10:26:52;101737.72;;;24.76
79714;BMP280;69206;51.420;5.400;2023-06-26T10:29:19;101706.88;;;24.60
79714;BMP280;69206;51.420;5.400;2023-06-26T10:31:50;101691.94;;;23.77
79714;BMP280;69206;51.420;5.400;2023-06-26T10:34:16;101746.50;;;24.14
79714;BMP280;69206;51.420;5.400;2023-06-26T10:36:43;101695.47;;;23.71
79714;BMP280;69206;51.420;5.400;2023-06-26T10:39:09;101704.22;;;24.16
79714;BMP280;69206;51.420;5.400;2023-06-26T10:41:39;101750.28;;;24.57
79714;BMP280;69206;51.420;5.400;2023-06-26T10:44:12;101717.53;;;24.73
79714;BMP280;69206;51.420;5.400;2023-06-26T10:46:54;101763.59;;;25.32
79714;BMP280;69206;51.420;5.400;2023-06-26T10:49:20;101725.50;;;24.86
79714;BMP280;69206;51.420;5.400;2023-06-26T10:51:47;101716.09;;;24.71
79714;BMP280;69206;51.420;5.400;2023-06-26T10:54:16;101727.69;;;25.02
79714;BMP280;69206;51.420;5.400;2023-06-26T10:56:49;101760.25;;;25.12
79714;BMP280;69206;51.420;5.400;2023-06-26T10:59:16;101752.19;;;25.12
79714;BMP280;69206;51.420;5.400;2023-06-26T11:01:44;101748.88;;;25.10
79714;BMP280;69206;51.420;5.400;2023-06-26T11:04:13;101732.41;;;25.00
79714;BMP280;69206;51.420;5.400;2023-06-26T11:06:40;101764.91;;;24.99
79714;BMP280;69206;51.420;5.400;2023-06-26T11:14:25;101744.59;;;24.72
79714;BMP280;69206;51.420;5.400;2023-06-26T11:16:52;101726.22;;;24.31
79714;BMP280;69206;51.420;5.400;2023-06-26T11:19:18;101733.22;;;24.39
79714;BMP280;69206;51.420;5.400;2023-06-26T11:21:44;101774.34;;;24.70
79714;BMP280;69206;51.420;5.400;2023-06-26T11:24:11;101740.56;;;24.56
79714;BMP280;69206;51.420;5.400;2023-06-26T11:26:42;101726.34;;;24.87
79714;BMP280;69206;51.420;5.400;2023-06-26T11:29:08;101760.88;;;25.38
79714;BMP280;69206;51.420;5.400;2023-06-26T11:31:36;101777.88;;;25.75
79714;BMP280;69206;51.420;5.400;2023-06-26T11:34:11;101779.19;;;25.48
79714;BMP280;69206;51.420;5.400;2023-06-26T11:36:38;101799.38;;;25.57
79714;BMP280;69206;51.420;5.400;2023-06-26T11:39:05;101798.66;;;26.04
79714;BMP280;69206;51.420;5.400;2023-06-26T11:41:33;101789.09;;;26.26
79714;BMP280;69206;51.420;5.400;2023-06-26T11:46:28;101758.84;;;25.52
79714;BMP280;69206;51.420;5.400;2023-06-26T11:48:53;101785.41;;;25.84
79714;BMP280;69206;51.420;5.400;2023-06-26T11:51:19;101823.44;;;25.70
79714;BMP280;69206;51.420;5.400;2023-06-26T11:53:46;101825.59;;;25.06
79714;BMP280;69206;51.420;5.400;2023-06-26T11:56:13;101840.31;;;24.97
79714;BMP280;69206;51.420;5.400;2023-06-26T11:59:02;101810.72;;;24.73
79714;BMP280;69206;51.420;5.400;2023-06-26T12:01:33;101835.91;;;24.78
79714;BMP280;69206;51.420;5.400;2023-06-26T12:04:00;101799.38;;;25.02
79714;BMP280;69206;51.420;5.400;2023-06-26T12:06:27;101842.88;;;24.22
79714;BMP280;69206;51.420;5.400;2023-06-26T12:08:54;101825.78;;;24.23
79714;BMP280;69206;51.420;5.400;2023-06-26T12:11:20;101834.31;;;24.64
79714;BMP280;69206;51.420;5.400;2023-06-26T12:13:49;101820.00;;;24.70
79714;BMP280;69206;51.420;5.400;2023-06-26T12:16:15;101832.88;;;24.99
79714;BMP280;69206;51.420;5.400;2023-06-26T12:18:41;101822.34;;;25.28
79714;BMP280;69206;51.420;5.400;2023-06-26T12:21:07;101825.63;;;25.00
79714;BMP280;69206;51.420;5.400;2023-06-26T12:23:39;101848.41;;;25.28
79714;BMP280;69206;51.420;5.400;2023-06-26T12:26:20;101850.72;;;25.24
79714;BMP280;69206;51.420;5.400;2023-06-26T12:28:46;101828.28;;;25.06
79714;BMP280;69206;51.420;5.400;2023-06-26T12:31:15;101853.72;;;24.60
79714;BMP280;69206;51.420;5.400;2023-06-26T12:33:43;101835.16;;;24.58
79714;BMP280;69206;51.420;5.400;2023-06-26T12:36:12;101826.53;;;24.43
79714;BMP280;69206;51.420;5.400;2023-06-26T12:38:38;101817.13;;;24.02
79714;BMP280;69206;51.420;5.400;2023-06-26T12:41:04;101843.78;;;24.60
79714;BMP280;69206;51.420;5.400;2023-06-26T12:43:29;101839.72;;;24.38
79714;BMP280;69206;51.420;5.400;2023-06-26T12:45:56;101847.25;;;24.04
79714;BMP280;69206;51.420;5.400;2023-06-26T12:48:22;101775.53;;;23.54
79714;BMP280;69206;51.420;5.400;2023-06-26T12:50:47;101821.84;;;24.19
79714;BMP280;69206;51.420;5.400;2023-06-26T12:53:13;101841.72;;;25.06
79714;BMP280;69206;51.420;5.400;2023-06-26T12:55:40;101834.66;;;25.36
79714;BMP280;69206;51.420;5.400;2023-06-26T12:58:06;101845.38;;;25.42
79714;BMP280;69206;51.420;5.400;2023-06-26T13:00:32;101833.38;;;25.45
79714;BMP280;69206;51.420;5.400;2023-06-26T13:02:58;101842.84;;;25.96
79714;BMP280;69206;51.420;5.400;2023-06-26T13:05:24;101815.03;;;26.02
79714;BMP280;69206;51.420;5.400;2023-06-26T13:07:49;101851.00;;;26.43
79714;BMP280;69206;51.420;5.400;2023-06-26T13:10:14;101812.38;;;26.49
79714;BMP280;69206;51.420;5.400;2023-06-26T13:12:40;101798.44;;;25.87
79714;BMP280;69206;51.420;5.400;2023-06-26T13:15:05;101850.03;;;26.56
79714;BMP280;69206;51.420;5.400;2023-06-26T13:17:31;101801.47;;;25.91
79714;BMP280;69206;51.420;5.400;2023-06-26T13:19:56;101803.50;;;25.53
79714;BMP280;69206;51.420;5.400;2023-06-26T13:22:22;101799.31;;;25.08
79714;BMP280;69206;51.420;5.400;2023-06-26T13:24:48;101771.16;;;24.49
79714;BMP280;69206;51.420;5.400;2023-06-26T13:27:13;101746.72;;;24.63
79714;BMP280;69206;51.420;5.400;2023-06-26T13:29:38;101825.59;;;25.37
79714;BMP280;69206;51.420;5.400;2023-06-26T13:32:04;101817.56;;;24.62
79714;BMP280;69206;51.420;5.400;2023-06-26T13:34:29;101841.09;;;24.67
79714;BMP280;69206;51.420;5.400;2023-06-26T13:36:56;101867.00;;;24.92
79714;BMP280;69206;51.420;5.400;2023-06-26T13:39:21;101847.09;;;24.62
79714;BMP280;69206;51.420;5.400;2023-06-26T13:41:46;101842.06;;;25.16
79714;BMP280;69206;51.420;5.400;2023-06-26T13:44:12;101829.50;;;25.10
79714;BMP280;69206;51.420;5.400;2023-06-26T13:46:37;101824.88;;;24.86
79714;BMP280;69206;51.420;5.400;2023-06-26T13:49:02;101822.50;;;25.03
79714;BMP280;69206;51.420;5.400;2023-06-26T13:51:28;101793.66;;;24.92
79714;BMP280;69206;51.420;5.400;2023-06-26T13:53:53;101834.69;;;25.60
79714;BMP280;69206;51.420;5.400;2023-06-26T13:56:20;101852.03;;;25.89
79714;BMP280;69206;51.420;5.400;2023-06-26T13:58:45;101868.47;;;25.50
79714;BMP280;69206;51.420;5.400;2023-06-26T14:01:10;101831.19;;;25.05
79714;BMP280;69206;51.420;5.400;2023-06-26T14:03:37;101839.94;;;24.94
79714;BMP280;69206;51.420;5.400;2023-06-26T14:06:02;101877.06;;;25.03
79714;BMP280;69206;51.420;5.400;2023-06-26T14:08:30;101836.56;;;25.05
79714;BMP280;69206;51.420;5.400;2023-06-26T14:10:55;101841.63;;;25.74